Time;durP1;ratioP1;P1;durP2;ratioP2;P2;SDS_P1;SDS_P2;PMS_P1;PMS_P2;Temp;Humidity;BMP_temperature;BMP_pressure;BME280_temperature;BME280_humidity;BME280_pressure;Samples;Min_cycle;Max_cycle;Signal;HPM_P1;HPM_P2
2023/09/09 00:00:46;;;;;;;21.43;16.93;;;16.90;99.90;;;;;;5069873;28;21069;-68
2023/09/09 00:03:14;;;;;;;22.20;16.83;;;16.90;99.90;;;;;;5059290;28;20526;-69
2023/09/09 00:05:43;;;;;;;21.27;16.80;;;16.90;99.90;;;;;;5049133;28;20479;-69
2023/09/09 00:08:11;;;;;;;20.47;14.63;;;16.80;99.90;;;;;;5049487;28;21044;-69
2023/09/09 00:10:39;;;;;;;22.50;15.70;;;16.80;99.90;;;;;;5045871;28;20452;-69
2023/09/09 00:13:09;;;;;;;21.17;16.23;;;16.80;99.90;;;;;;5049271;28;20463;-70
2023/09/09 00:15:37;;;;;;;20.77;16.33;;;16.70;99.90;;;;;;5049119;28;20930;-69
2023/09/09 00:18:06;;;;;;;23.07;17.63;;;16.60;99.90;;;;;;5048374;28;21065;-69
2023/09/09 00:20:36;;;;;;;21.50;15.80;;;16.70;99.90;;;;;;5049496;28;20878;-69
2023/09/09 00:23:07;;;;;;;21.57;15.40;;;16.60;99.90;;;;;;5048337;28;20460;-69
2023/09/09 00:25:36;;;;;;;19.07;14.10;;;16.60;99.90;;;;;;5049142;28;20488;-69
2023/09/09 00:28:05;;;;;;;18.97;15.17;;;16.60;99.90;;;;;;5049052;28;20476;-69
2023/09/09 00:30:33;;;;;;;22.40;16.40;;;16.60;99.90;;;;;;5049458;28;20475;-69
2023/09/09 00:33:02;;;;;;;23.07;16.47;;;16.60;99.90;;;;;;5048972;28;20907;-69
2023/09/09 00:35:32;;;;;;;20.90;16.33;;;16.70;99.90;;;;;;5048576;28;20455;-69
2023/09/09 00:38:01;;;;;;;23.20;17.20;;;16.70;99.90;;;;;;5049099;28;20496;-69
2023/09/09 00:40:29;;;;;;;19.60;15.60;;;16.60;99.90;;;;;;5049208;28;20447;-69
2023/09/09 00:42:57;;;;;;;21.87;16.50;;;16.60;99.90;;;;;;5048961;28;20961;-69
2023/09/09 00:45:26;;;;;;;22.30;17.37;;;16.50;99.90;;;;;;5048640;28;20950;-68
2023/09/09 00:47:54;;;;;;;20.97;16.40;;;16.50;99.90;;;;;;5048935;28;20452;-69
2023/09/09 00:50:23;;;;;;;22.70;17.30;;;16.50;99.90;;;;;;5048757;28;20452;-69
2023/09/09 00:52:53;;;;;;;21.40;16.23;;;16.50;99.90;;;;;;5048925;28;20555;-69
2023/09/09 00:55:23;;;;;;;20.07;16.90;;;16.60;99.90;;;;;;5048605;28;20997;-69
2023/09/09 00:57:51;;;;;;;20.47;15.83;;;16.50;99.90;;;;;;5049189;28;20476;-69
2023/09/09 01:00:19;;;;;;;20.37;16.43;;;16.50;99.90;;;;;;5048937;28;20795;-69
2023/09/09 01:02:47;;;;;;;20.43;15.63;;;16.50;99.90;;;;;;5054377;28;20509;-69
2023/09/09 01:05:15;;;;;;;21.47;17.07;;;16.40;99.90;;;;;;5064647;28;20486;-69
2023/09/09 01:07:45;;;;;;;21.87;16.37;;;16.50;99.90;;;;;;5054586;28;21002;-69
2023/09/09 01:10:17;;;;;;;25.40;18.40;;;16.50;99.90;;;;;;5064903;28;20458;-68
2023/09/09 01:12:45;;;;;;;24.03;17.03;;;16.40;99.90;;;;;;5067261;28;21101;-69
2023/09/09 01:15:13;;;;;;;21.23;16.40;;;16.30;99.90;;;;;;5068623;28;20501;-68
2023/09/09 01:17:42;;;;;;;21.90;16.77;;;16.30;99.90;;;;;;5066132;28;20822;-69
2023/09/09 01:20:14;;;;;;;22.13;17.20;;;16.30;99.90;;;;;;5067828;28;20443;-69
2023/09/09 01:22:45;;;;;;;22.10;17.80;;;16.30;99.90;;;;;;5072501;28;20443;-69
2023/09/09 01:25:13;;;;;;;21.13;16.57;;;16.30;99.90;;;;;;5072457;28;20512;-67
2023/09/09 01:27:42;;;;;;;20.40;15.37;;;16.30;99.90;;;;;;5072890;28;20502;-70
2023/09/09 01:30:11;;;;;;;20.97;15.93;;;16.40;99.90;;;;;;5072212;28;20566;-69
2023/09/09 01:32:40;;;;;;;20.97;15.10;;;16.30;99.90;;;;;;5072030;28;20443;-69
2023/09/09 01:35:08;;;;;;;19.60;15.60;;;16.30;99.90;;;;;;5069532;28;20452;-69
2023/09/09 01:37:36;;;;;;;18.50;14.87;;;16.20;99.90;;;;;;5070035;28;20537;-69
2023/09/09 01:40:10;;;;;;;20.23;15.83;;;16.20;99.90;;;;;;5055253;28;21192;-69
2023/09/09 01:42:40;;;;;;;22.17;15.70;;;16.20;99.90;;;;;;5069567;28;20534;-69
2023/09/09 01:45:08;;;;;;;25.57;16.10;;;16.20;99.90;;;;;;5054613;28;20840;-69
2023/09/09 01:47:36;;;;;;;21.43;16.60;;;16.10;99.90;;;;;;5051997;28;21041;-69
2023/09/09 01:50:05;;;;;;;21.27;15.30;;;16.10;99.90;;;;;;5052204;28;20518;-69
2023/09/09 01:52:33;;;;;;;21.63;15.90;;;16.10;99.90;;;;;;5051849;28;20458;-69
2023/09/09 01:55:01;;;;;;;20.57;16.50;;;16.10;99.90;;;;;;5051784;28;20455;-69
2023/09/09 01:57:30;;;;;;;21.00;16.90;;;16.10;99.90;;;;;;5051491;28;20480;-69
2023/09/09 01:59:58;;;;;;;24.50;15.47;;;16.00;99.90;;;;;;5052205;28;20478;-69
2023/09/09 02:02:26;;;;;;;21.57;17.60;;;16.00;99.90;;;;;;5050498;28;20574;-67
2023/09/09 02:04:54;;;;;;;18.50;14.73;;;16.10;99.90;;;;;;5051586;28;20452;-69
2023/09/09 02:07:22;;;;;;;18.87;14.90;;;16.00;99.90;;;;;;5051708;28;21028;-69
2023/09/09 02:09:50;;;;;;;21.00;15.60;;;16.00;99.90;;;;;;5051443;28;20501;-69
2023/09/09 02:12:18;;;;;;;18.97;14.20;;;16.10;99.90;;;;;;5051494;28;20448;-70
2023/09/09 02:14:47;;;;;;;18.73;14.43;;;16.10;99.90;;;;;;5051146;28;20505;-69
2023/09/09 02:17:15;;;;;;;19.10;14.53;;;16.20;99.90;;;;;;5051765;28;20480;-69
2023/09/09 02:19:44;;;;;;;19.37;14.30;;;16.20;99.90;;;;;;5051019;28;20545;-69
2023/09/09 02:22:12;;;;;;;18.30;13.57;;;16.20;99.90;;;;;;5051185;28;20482;-69
2023/09/09 02:24:40;;;;;;;18.50;14.53;;;16.10;99.90;;;;;;5056809;28;20462;-69
2023/09/09 02:27:08;;;;;;;23.30;15.17;;;16.10;99.90;;;;;;5071316;28;20578;-70
2023/09/09 02:29:36;;;;;;;20.33;14.33;;;16.00;99.90;;;;;;5071266;28;20463;-70
2023/09/09 02:32:06;;;;;;;18.53;13.33;;;16.00;99.90;;;;;;5070395;28;20875;-69
2023/09/09 02:34:33;;;;;;;18.37;14.53;;;16.00;99.90;;;;;;5070291;28;20525;-68
2023/09/09 02:37:16;;;;;;;18.30;13.60;;;16.00;99.90;;;;;;5070958;28;20471;-69
2023/09/09 02:39:45;;;;;;;18.10;15.10;;;16.00;99.90;;;;;;5071521;28;20474;-69
2023/09/09 02:42:15;;;;;;;19.13;14.33;;;15.90;99.90;;;;;;5071013;28;20550;-70
2023/09/09 02:44:44;;;;;;;19.50;14.73;;;15.90;99.90;;;;;;5070945;28;20543;-69
2023/09/09 02:47:13;;;;;;;18.73;14.40;;;15.90;99.90;;;;;;5070448;28;20572;-69
2023/09/09 02:49:43;;;;;;;18.10;13.73;;;16.00;99.90;;;;;;5070872;28;20536;-69
2023/09/09 02:52:13;;;;;;;21.13;13.23;;;16.00;99.90;;;;;;5070853;28;20443;-69
2023/09/09 02:54:41;;;;;;;20.33;15.17;;;15.90;99.90;;;;;;5070157;28;20917;-69
2023/09/09 02:57:09;;;;;;;18.33;13.37;;;15.90;99.90;;;;;;5070603;28;20451;-69
2023/09/09 02:59:37;;;;;;;19.70;14.87;;;15.90;99.90;;;;;;5070406;28;20467;-69
2023/09/09 03:02:06;;;;;;;20.30;15.20;;;15.90;99.90;;;;;;5070817;28;20520;-70
2023/09/09 03:04:35;;;;;;;21.37;14.97;;;15.80;99.90;;;;;;5070136;28;20444;-69
2023/09/09 03:07:04;;;;;;;20.30;15.30;;;15.80;99.90;;;;;;5070712;28;20482;-69
2023/09/09 03:09:33;;;;;;;21.73;16.33;;;15.80;99.90;;;;;;5066464;28;20489;-69
2023/09/09 03:12:01;;;;;;;21.00;15.13;;;15.70;99.90;;;;;;5066521;28;20439;-69
2023/09/09 03:14:29;;;;;;;22.23;16.53;;;15.80;99.90;;;;;;5057741;28;20949;-69
2023/09/09 03:16:58;;;;;;;23.30;15.77;;;15.70;99.90;;;;;;5057055;28;20599;-69
2023/09/09 03:19:26;;;;;;;18.70;13.60;;;15.70;99.90;;;;;;5068069;28;20542;-69
2023/09/09 03:21:57;;;;;;;17.60;13.90;;;15.70;99.90;;;;;;5066882;28;20493;-70
2023/09/09 03:24:25;;;;;;;19.87;14.37;;;15.70;99.90;;;;;;5069190;28;20442;-69
2023/09/09 03:26:53;;;;;;;20.93;16.10;;;15.70;99.90;;;;;;5070172;28;20490;-69
2023/09/09 03:29:21;;;;;;;20.60;15.10;;;15.70;99.90;;;;;;5070446;28;20880;-69
2023/09/09 03:31:50;;;;;;;18.37;14.87;;;15.80;99.90;;;;;;5069722;28;20451;-69
2023/09/09 03:34:18;;;;;;;22.03;15.30;;;15.80;99.90;;;;;;5065244;28;20436;-68
2023/09/09 03:36:46;;;;;;;19.97;14.37;;;15.80;99.90;;;;;;5066585;28;20447;-69
2023/09/09 03:39:15;;;;;;;21.33;16.87;;;15.70;99.90;;;;;;5070096;28;20847;-69
2023/09/09 03:41:43;;;;;;;20.67;16.30;;;15.70;99.90;;;;;;5069932;28;20798;-69
2023/09/09 03:44:11;;;;;;;20.93;16.10;;;15.80;99.90;;;;;;5069539;28;20556;-69
2023/09/09 03:46:39;;;;;;;20.67;16.20;;;15.80;99.90;;;;;;5069143;28;20530;-69
2023/09/09 03:49:07;;;;;;;21.67;15.87;;;15.70;99.90;;;;;;5063243;28;20492;-70
2023/09/09 03:51:35;;;;;;;20.60;15.23;;;15.70;99.90;;;;;;5066703;28;20451;-69
2023/09/09 03:54:05;;;;;;;19.73;16.47;;;15.70;99.90;;;;;;5053057;28;20456;-70
2023/09/09 03:56:34;;;;;;;21.40;16.10;;;15.70;99.90;;;;;;5050070;28;21101;-69
2023/09/09 03:59:02;;;;;;;26.40;17.37;;;15.60;99.90;;;;;;5049787;28;20467;-69
2023/09/09 04:01:30;;;;;;;20.20;16.47;;;15.60;99.90;;;;;;5049878;28;20889;-69
2023/09/09 04:03:58;;;;;;;21.30;16.67;;;15.50;99.90;;;;;;5049326;28;20497;-69
2023/09/09 04:06:27;;;;;;;25.87;19.37;;;15.50;99.90;;;;;;5049392;28;20450;-68
2023/09/09 04:08:57;;;;;;;25.63;19.50;;;15.50;99.90;;;;;;5049631;28;20909;-69
2023/09/09 04:11:25;;;;;;;21.57;16.73;;;15.50;99.90;;;;;;5049540;28;20954;-69
2023/09/09 04:13:55;;;;;;;23.10;17.27;;;15.50;99.90;;;;;;5049606;28;20526;-69
2023/09/09 04:16:23;;;;;;;22.03;15.07;;;15.60;99.90;;;;;;5048895;28;21124;-69
2023/09/09 04:18:51;;;;;;;20.53;16.00;;;15.60;99.90;;;;;;5049528;28;21165;-69
2023/09/09 04:21:19;;;;;;;25.13;16.37;;;15.60;99.90;;;;;;5048904;28;20527;-69
2023/09/09 04:23:47;;;;;;;18.47;15.43;;;15.60;99.90;;;;;;5049311;28;20447;-69
2023/09/09 04:26:15;;;;;;;19.17;15.70;;;15.50;99.90;;;;;;5048970;28;20551;-69
2023/09/09 04:28:44;;;;;;;21.23;16.80;;;15.50;99.90;;;;;;5049331;28;20567;-69
2023/09/09 04:31:13;;;;;;;20.37;14.87;;;15.50;99.90;;;;;;5048737;28;21012;-69
2023/09/09 04:33:41;;;;;;;20.10;15.67;;;15.50;99.90;;;;;;5048975;28;20531;-69
2023/09/09 04:36:09;;;;;;;20.97;15.03;;;15.60;99.90;;;;;;5049188;28;20535;-69
2023/09/09 04:38:37;;;;;;;19.53;15.93;;;15.60;99.90;;;;;;5049086;28;20464;-69
2023/09/09 04:41:09;;;;;;;21.30;16.40;;;15.60;99.90;;;;;;5049457;28;20451;-69
2023/09/09 04:43:37;;;;;;;20.10;15.40;;;15.60;99.90;;;;;;5058753;28;20447;-69
2023/09/09 04:46:06;;;;;;;19.43;14.87;;;15.50;99.90;;;;;;5068512;28;20462;-69
2023/09/09 04:48:35;;;;;;;21.10;16.10;;;15.40;99.90;;;;;;5060567;28;20529;-69
2023/09/09 04:51:03;;;;;;;19.80;15.93;;;15.40;99.90;;;;;;5069554;28;20485;-69
2023/09/09 04:53:31;;;;;;;21.20;15.00;;;15.40;99.90;;;;;;5068783;28;20530;-69
2023/09/09 04:56:00;;;;;;;21.00;15.33;;;15.50;99.90;;;;;;5070388;28;20455;-69
2023/09/09 04:58:30;;;;;;;20.80;15.67;;;15.40;99.90;;;;;;5073544;28;20800;-69
2023/09/09 05:00:58;;;;;;;18.80;14.23;;;15.50;99.90;;;;;;5071865;28;20867;-70
2023/09/09 05:03:26;;;;;;;19.43;14.80;;;15.50;99.90;;;;;;5072764;28;20508;-69
2023/09/09 05:05:55;;;;;;;19.47;15.33;;;15.40;99.90;;;;;;5073203;28;20447;-69
2023/09/09 05:08:23;;;;;;;20.43;15.60;;;15.40;99.90;;;;;;5070155;28;20502;-69
2023/09/09 05:10:51;;;;;;;18.57;14.80;;;15.40;99.90;;;;;;5068699;28;20936;-70
2023/09/09 05:13:19;;;;;;;22.57;15.50;;;15.40;99.90;;;;;;5054450;28;20454;-70
2023/09/09 05:15:48;;;;;;;20.20;15.00;;;15.40;99.90;;;;;;5052211;28;20483;-70
2023/09/09 05:18:16;;;;;;;20.30;15.70;;;15.40;99.90;;;;;;5052571;28;20550;-70
2023/09/09 05:20:44;;;;;;;19.20;15.13;;;15.50;99.90;;;;;;5053056;28;20459;-69
2023/09/09 05:23:14;;;;;;;20.90;16.10;;;15.60;99.90;;;;;;5052626;28;20452;-70
2023/09/09 05:25:42;;;;;;;21.50;15.07;;;15.60;99.90;;;;;;5052090;28;20917;-69
2023/09/09 05:28:10;;;;;;;19.67;15.97;;;15.60;99.90;;;;;;5052405;28;20487;-70
2023/09/09 05:30:40;;;;;;;20.47;15.20;;;15.70;99.90;;;;;;5053061;28;20448;-70
2023/09/09 05:33:08;;;;;;;18.47;14.70;;;15.70;99.90;;;;;;5052254;28;20560;-70
2023/09/09 05:35:36;;;;;;;19.17;14.97;;;15.70;99.90;;;;;;5052368;28;20886;-70
2023/09/09 05:38:04;;;;;;;20.53;15.17;;;15.70;99.90;;;;;;5052528;28;20466;-69
2023/09/09 05:40:33;;;;;;;20.53;16.30;;;15.70;99.90;;;;;;5052415;28;20479;-70
2023/09/09 05:43:01;;;;;;;19.80;14.73;;;15.80;99.90;;;;;;5051972;28;20470;-70
2023/09/09 05:45:29;;;;;;;21.00;14.90;;;15.70;99.90;;;;;;5052055;28;20930;-70
2023/09/09 05:47:57;;;;;;;18.90;14.97;;;15.80;99.90;;;;;;5052922;28;20498;-70
2023/09/09 05:50:25;;;;;;;23.23;16.43;;;15.80;99.90;;;;;;5053307;28;20452;-68
2023/09/09 05:52:53;;;;;;;19.17;15.50;;;15.90;99.90;;;;;;5055475;28;20505;-70
2023/09/09 05:55:25;;;;;;;20.90;16.27;;;16.00;99.90;;;;;;5056714;28;20458;-70
2023/09/09 05:57:55;;;;;;;22.70;17.20;;;16.10;99.90;;;;;;5058509;28;20452;-70
2023/09/09 06:00:23;;;;;;;20.60;15.60;;;16.10;99.90;;;;;;5060651;28;20440;-69
2023/09/09 06:02:50;;;;;;;20.73;16.90;;;16.20;99.90;;;;;;5058699;28;20456;-70
2023/09/09 06:05:19;;;;;;;22.73;15.23;;;16.30;99.90;;;;;;5053904;28;20456;-70
2023/09/09 06:07:48;;;;;;;23.00;15.07;;;16.40;99.90;;;;;;5052988;28;20475;-70
2023/09/09 06:10:16;;;;;;;24.47;16.97;;;16.50;99.90;;;;;;5053199;28;21025;-69
2023/09/09 06:12:43;;;;;;;21.23;16.47;;;16.50;99.90;;;;;;5053268;28;20470;-70
2023/09/09 06:15:13;;;;;;;20.33;15.70;;;16.60;99.90;;;;;;5070035;28;20454;-70
2023/09/09 06:17:41;;;;;;;19.57;16.00;;;16.70;99.90;;;;;;5073086;28;20457;-70
2023/09/09 06:20:11;;;;;;;20.23;15.27;;;16.80;99.90;;;;;;5073454;28;20534;-70
2023/09/09 06:22:39;;;;;;;21.47;17.00;;;16.90;99.90;;;;;;5073503;28;20455;-70
2023/09/09 06:25:08;;;;;;;20.00;15.67;;;16.90;99.90;;;;;;5073495;28;20809;-70
2023/09/09 06:27:36;;;;;;;22.17;15.67;;;17.00;99.90;;;;;;5073311;28;20516;-70
2023/09/09 06:30:07;;;;;;;19.93;15.87;;;17.10;99.90;;;;;;5075010;28;20483;-70
2023/09/09 06:32:36;;;;;;;19.83;15.87;;;17.20;99.90;;;;;;5074951;28;20828;-70
2023/09/09 06:35:07;;;;;;;21.20;16.03;;;17.20;99.90;;;;;;5072234;28;20439;-70
2023/09/09 06:37:35;;;;;;;20.20;14.97;;;17.30;99.90;;;;;;5072182;28;20443;-70
2023/09/09 06:40:03;;;;;;;19.87;15.80;;;17.40;99.90;;;;;;5072269;28;20459;-70
2023/09/09 06:42:31;;;;;;;19.60;14.90;;;17.50;99.90;;;;;;5072093;28;20460;-70
2023/09/09 06:45:00;;;;;;;21.60;15.20;;;17.60;99.90;;;;;;5071107;28;20454;-70
2023/09/09 06:47:28;;;;;;;20.60;16.50;;;17.80;99.90;;;;;;5072262;28;20509;-70
2023/09/09 06:49:57;;;;;;;19.47;15.70;;;18.00;99.90;;;;;;5071621;28;20493;-70
2023/09/09 06:52:25;;;;;;;17.20;14.20;;;18.20;99.90;;;;;;5071865;28;20500;-70
2023/09/09 06:54:53;;;;;;;20.30;13.97;;;18.30;99.90;;;;;;5074695;28;20562;-70
2023/09/09 06:57:21;;;;;;;19.73;14.03;;;18.50;99.90;;;;;;5073539;28;20447;-72
2023/09/09 06:59:50;;;;;;;17.77;14.60;;;18.60;99.90;;;;;;5079862;28;20467;-73
2023/09/09 07:02:18;;;;;;;19.60;13.63;;;18.70;99.90;;;;;;5071194;28;20825;-72
2023/09/09 07:04:46;;;;;;;15.90;13.90;;;18.80;99.90;;;;;;5057696;28;20880;-72
2023/09/09 07:07:16;;;;;;;16.83;13.23;;;19.00;99.90;;;;;;5050931;28;20444;-71
2023/09/09 07:09:45;;;;;;;16.40;12.60;;;19.10;99.90;;;;;;5050639;28;20493;-72
2023/09/09 07:12:13;;;;;;;17.87;13.87;;;19.10;99.90;;;;;;5050859;28;20529;-72
2023/09/09 07:14:41;;;;;;;17.50;13.50;;;19.20;99.90;;;;;;5050420;28;20455;-72
2023/09/09 07:17:10;;;;;;;16.10;13.17;;;19.20;99.90;;;;;;5050809;28;20934;-72
2023/09/09 07:19:38;;;;;;;17.60;13.93;;;19.30;99.90;;;;;;5050530;28;20555;-72
2023/09/09 07:22:06;;;;;;;18.37;12.83;;;19.30;99.90;;;;;;5050618;28;20919;-71
2023/09/09 07:24:36;;;;;;;17.63;13.60;;;19.40;99.90;;;;;;5049546;28;20995;-72
2023/09/09 07:27:04;;;;;;;19.17;13.97;;;19.60;99.90;;;;;;5050335;28;20546;-72
2023/09/09 07:29:32;;;;;;;17.83;13.90;;;19.60;99.90;;;;;;5050923;28;20581;-72
2023/09/09 07:32:00;;;;;;;18.00;13.67;;;19.70;99.90;;;;;;5050443;28;20472;-71
2023/09/09 07:34:28;;;;;;;17.33;13.10;;;19.90;99.90;;;;;;5049733;28;20444;-71
2023/09/09 07:36:56;;;;;;;17.60;13.47;;;20.00;99.90;;;;;;5050208;28;20975;-71
2023/09/09 07:39:27;;;;;;;18.77;14.10;;;20.10;99.90;;;;;;5050117;28;20874;-71
2023/09/09 07:41:56;;;;;;;16.80;13.23;;;20.20;99.90;;;;;;5049718;28;20509;-72
2023/09/09 07:44:24;;;;;;;19.47;13.93;;;20.30;99.90;;;;;;5049563;28;20826;-72
2023/09/09 07:46:52;;;;;;;17.00;13.37;;;20.40;99.90;;;;;;5050111;28;20452;-71
2023/09/09 07:49:21;;;;;;;17.33;14.30;;;20.60;99.90;;;;;;5049929;28;20472;-70
2023/09/09 07:51:49;;;;;;;16.77;12.77;;;20.70;99.90;;;;;;5049836;28;20455;-72
2023/09/09 07:54:17;;;;;;;19.60;13.50;;;20.80;99.90;;;;;;5049194;28;20950;-69
2023/09/09 07:56:46;;;;;;;15.67;12.30;;;20.90;99.90;;;;;;5049965;28;20452;-72
2023/09/09 07:59:15;;;;;;;16.07;13.60;;;21.00;99.90;;;;;;5049604;28;20489;-70
2023/09/09 08:01:44;;;;;;;17.00;12.83;;;21.10;99.90;;;;;;5049441;28;20435;-68
2023/09/09 08:04:12;;;;;;;17.20;11.83;;;21.20;99.90;;;;;;5049214;28;20456;-67
2023/09/09 08:06:41;;;;;;;15.13;11.73;;;21.40;99.90;;;;;;5050032;28;20851;-70
2023/09/09 08:09:09;;;;;;;15.90;11.90;;;21.60;99.90;;;;;;5049710;28;20498;-72
2023/09/09 08:11:37;;;;;;;16.47;12.87;;;21.70;99.90;;;;;;5049897;28;20570;-71
2023/09/09 08:14:05;;;;;;;18.00;12.70;;;21.80;99.90;;;;;;5049110;28;20458;-74
2023/09/09 08:16:34;;;;;;;14.57;11.73;;;22.00;99.90;;;;;;5049364;28;20455;-71
2023/09/09 08:19:02;;;;;;;15.60;12.17;;;22.20;99.90;;;;;;5051303;28;20579;-71
2023/09/09 08:21:30;;;;;;;18.53;12.70;;;22.30;99.90;;;;;;5056976;28;20432;-69
2023/09/09 08:24:00;;;;;;;14.60;11.90;;;22.50;99.90;;;;;;5063650;28;20879;-71
2023/09/09 08:26:30;;;;;;;15.77;12.23;;;22.70;99.90;;;;;;5060079;28;20473;-70
2023/09/09 08:28:58;;;;;;;16.33;12.20;;;22.80;99.90;;;;;;5061047;28;20467;-71
2023/09/09 08:31:27;;;;;;;17.40;12.00;;;22.90;99.90;;;;;;5055390;28;20570;-70
2023/09/09 08:33:56;;;;;;;19.13;13.03;;;23.10;99.90;;;;;;5047598;28;20455;-70
2023/09/09 08:36:26;;;;;;;16.60;11.97;;;23.20;99.90;;;;;;5058474;28;20875;-70
2023/09/09 08:38:56;;;;;;;16.90;12.10;;;23.50;99.90;;;;;;5066451;28;20459;-69
2023/09/09 08:41:37;;;;;;;15.40;11.83;;;23.70;99.90;;;;;;5064625;28;20497;-70
2023/09/09 08:44:12;;;;;;;17.00;12.57;;;23.90;99.90;;;;;;5050527;28;20433;-70
2023/09/09 08:46:40;;;;;;;17.13;12.80;;;23.90;99.90;;;;;;5047561;28;20444;-69
2023/09/09 08:49:13;;;;;;;15.07;12.03;;;24.00;99.90;;;;;;5052042;28;20503;-71
2023/09/09 08:51:48;;;;;;;17.47;12.10;;;24.10;99.90;;;;;;5052810;28;20487;-69
2023/09/09 08:54:17;;;;;;;14.90;11.53;;;24.10;99.90;;;;;;5059142;28;20994;-69
2023/09/09 08:56:45;;;;;;;15.20;12.30;;;24.10;99.90;;;;;;5061073;28;20481;-67
2023/09/09 08:59:14;;;;;;;16.33;12.83;;;24.30;99.90;;;;;;5057321;28;21019;-68
2023/09/09 09:01:43;;;;;;;16.47;11.70;;;24.50;99.90;;;;;;5061352;28;20439;-67
2023/09/09 09:04:14;;;;;;;16.73;12.20;;;24.70;99.90;;;;;;5068910;28;20447;-68
2023/09/09 09:06:47;;;;;;;17.20;12.23;;;25.00;99.90;;;;;;5056864;28;20463;-69
2023/09/09 09:09:16;;;;;;;16.87;12.37;;;25.00;99.90;;;;;;5049419;28;20486;-69
2023/09/09 09:11:44;;;;;;;19.20;12.10;;;25.20;99.90;;;;;;5056519;28;20936;-70
2023/09/09 09:14:12;;;;;;;16.90;11.77;;;25.50;99.90;;;;;;5048795;28;20450;-70
2023/09/09 09:16:42;;;;;;;15.17;11.77;;;25.90;99.90;;;;;;5067794;28;20443;-71
2023/09/09 09:19:20;;;;;;;15.10;12.30;;;26.20;99.90;;;;;;5068780;28;20541;-71
2023/09/09 09:21:49;;;;;;;17.70;12.77;;;26.80;99.90;;;;;;5055889;28;20521;-72
2023/09/09 09:24:22;;;;;;;15.53;12.50;;;27.30;99.90;;;;;;5065634;28;20944;-73
2023/09/09 09:26:50;;;;;;;16.30;12.73;;;27.80;99.90;;;;;;5069410;28;20443;-73
2023/09/09 09:29:18;;;;;;;14.17;10.93;;;27.90;99.90;;;;;;5068878;28;20462;-70
2023/09/09 09:31:51;;;;;;;15.53;11.83;;;28.00;99.90;;;;;;5068972;28;20482;-70
2023/09/09 09:34:22;;;;;;;15.63;11.20;;;28.30;99.90;;;;;;5068795;28;20522;-72
2023/09/09 09:36:50;;;;;;;14.13;11.33;;;28.70;99.90;;;;;;5069514;28;20435;-71
2023/09/09 09:39:18;;;;;;;16.23;13.03;;;28.70;99.90;;;;;;5068952;28;20459;-71
2023/09/09 09:41:46;;;;;;;13.00;11.33;;;28.70;99.90;;;;;;5071430;28;20447;-70
2023/09/09 09:44:23;;;;;;;15.87;11.80;;;29.10;99.90;;;;;;5073853;28;20478;-71
2023/09/09 09:47:00;;;;;;;15.63;12.10;;;29.00;99.90;;;;;;5061151;28;20474;-70
2023/09/09 09:49:38;;;;;;;17.97;12.87;;;28.70;99.90;;;;;;5063892;28;20463;-69
2023/09/09 09:52:07;;;;;;;19.00;12.17;;;28.70;99.90;;;;;;5065748;28;20486;-67
2023/09/09 09:54:36;;;;;;;17.13;12.27;;;28.90;99.90;;;;;;5069998;28;20450;-69
2023/09/09 09:57:06;;;;;;;15.80;12.47;;;29.00;99.90;;;;;;5067149;28;20458;-68
2023/09/09 09:59:42;;;;;;;15.63;12.30;;;28.90;99.90;;;;;;5060539;28;20455;-69
2023/09/09 10:02:11;;;;;;;16.20;12.00;;;29.00;99.90;;;;;;5066927;28;20811;-69
2023/09/09 10:04:43;;;;;;;14.10;10.73;;;29.30;99.90;;;;;;5071634;28;20455;-68
2023/09/09 10:07:13;;;;;;;16.13;9.83;;;29.40;98.10;;;;;;5066291;28;20811;-71
2023/09/09 10:09:48;;;;;;;15.03;9.90;;;29.50;98.90;;;;;;5062838;28;20550;-70
2023/09/09 10:12:20;;;;;;;13.23;10.37;;;29.80;98.70;;;;;;5062391;28;20585;-70
2023/09/09 10:15:01;;;;;;;15.00;11.10;;;29.90;95.80;;;;;;5059169;28;20447;-70
2023/09/09 10:17:31;;;;;;;16.00;11.93;;;30.00;95.50;;;;;;5058927;28;20448;-69
2023/09/09 10:20:04;;;;;;;14.57;12.23;;;29.60;95.30;;;;;;5058835;28;21002;-70
2023/09/09 10:22:33;;;;;;;13.70;10.33;;;29.50;95.40;;;;;;5063181;28;20965;-70
2023/09/09 10:25:04;;;;;;;14.47;10.97;;;29.50;95.10;;;;;;5062833;28;20436;-70
2023/09/09 10:27:33;;;;;;;14.47;11.57;;;29.90;94.90;;;;;;5063938;28;20431;-70
2023/09/09 10:30:03;;;;;;;14.80;11.33;;;30.00;94.00;;;;;;5062752;28;20466;-69
2023/09/09 10:32:31;;;;;;;14.43;11.10;;;30.20;93.90;;;;;;5064171;28;20517;-70
2023/09/09 10:35:05;;;;;;;15.53;11.67;;;30.20;93.40;;;;;;5061970;28;20447;-70
2023/09/09 10:37:35;;;;;;;14.97;10.93;;;30.20;93.50;;;;;;5062056;28;20446;-70
2023/09/09 10:40:05;;;;;;;13.70;10.83;;;30.40;92.70;;;;;;5062519;28;20545;-69
2023/09/09 10:42:37;;;;;;;14.87;9.67;;;30.80;93.00;;;;;;5069343;28;20522;-70
2023/09/09 10:45:26;;;;;;;12.90;11.03;;;31.30;90.70;;;;;;5071415;28;20466;-70
2023/09/09 10:47:57;;;;;;;14.63;10.60;;;31.50;90.20;;;;;;5068900;28;20439;-69
2023/09/09 10:50:39;;;;;;;13.33;9.30;;;31.30;87.70;;;;;;5060376;28;20877;-69
2023/09/09 10:53:15;;;;;;;13.20;10.67;;;31.30;85.80;;;;;;5060109;28;20432;-69
2023/09/09 10:55:43;;;;;;;14.93;11.40;;;31.40;87.00;;;;;;5061164;28;20435;-70
2023/09/09 10:58:15;;;;;;;14.13;10.77;;;31.20;85.90;;;;;;5062309;28;20485;-69
2023/09/09 11:00:45;;;;;;;12.43;10.03;;;31.30;85.10;;;;;;5060170;28;20510;-69
2023/09/09 11:03:17;;;;;;;12.73;10.10;;;31.10;84.70;;;;;;5059450;28;20937;-70
2023/09/09 11:06:02;;;;;;;14.40;10.13;;;31.30;86.90;;;;;;5059573;28;20459;-70
2023/09/09 11:08:32;;;;;;;13.13;10.00;;;31.80;83.60;;;;;;5059345;28;20455;-70
2023/09/09 11:11:15;;;;;;;16.60;11.27;;;32.20;81.60;;;;;;5065230;28;20441;-70
2023/09/09 11:13:46;;;;;;;13.10;9.40;;;32.60;78.90;;;;;;5065229;28;20439;-68
2023/09/09 11:16:28;;;;;;;11.40;8.20;;;33.10;78.20;;;;;;5061597;28;20436;-70
2023/09/09 11:18:58;;;;;;;13.70;8.50;;;33.60;73.80;;;;;;5059301;28;20470;-69
2023/09/09 11:21:28;;;;;;;11.50;8.70;;;33.80;67.90;;;;;;5062739;28;20447;-69
2023/09/09 11:23:57;;;;;;;11.93;9.00;;;33.30;67.50;;;;;;5070245;28;20542;-70
2023/09/09 11:26:25;;;;;;;11.30;9.00;;;33.60;65.80;;;;;;5070207;28;20443;-71
2023/09/09 11:28:54;;;;;;;12.77;8.70;;;33.90;63.90;;;;;;5064404;28;20456;-70
2023/09/09 11:31:24;;;;;;;12.00;8.37;;;34.40;65.00;;;;;;5058020;28;20532;-70
2023/09/09 11:33:56;;;;;;;11.83;7.97;;;35.10;60.70;;;;;;5057970;28;20471;-71
2023/09/09 11:36:25;;;;;;;11.80;7.57;;;35.50;59.40;;;;;;5058316;28;20875;-71
2023/09/09 11:38:56;;;;;;;12.30;7.70;;;34.90;57.30;;;;;;5058067;28;20467;-70
2023/09/09 11:41:25;;;;;;;12.50;8.30;;;34.50;58.90;;;;;;5058240;28;20551;-71
2023/09/09 11:43:58;;;;;;;12.00;8.13;;;34.60;57.90;;;;;;5058722;28;20517;-71
2023/09/09 11:46:26;;;;;;;10.80;7.40;;;35.00;57.20;;;;;;5058776;28;20451;-70
2023/09/09 11:48:54;;;;;;;13.80;8.33;;;35.30;56.20;;;;;;5058338;28;20460;-71
2023/09/09 11:51:22;;;;;;;11.83;8.83;;;34.90;57.60;;;;;;5059186;28;20444;-71
2023/09/09 11:53:51;;;;;;;11.70;8.60;;;35.30;58.60;;;;;;5056822;28;20440;-71
2023/09/09 11:56:21;;;;;;;11.10;8.13;;;35.60;57.80;;;;;;5058496;28;20446;-71
2023/09/09 11:58:50;;;;;;;13.40;8.03;;;36.00;56.70;;;;;;5058682;28;20478;-71
2023/09/09 12:01:19;;;;;;;10.90;6.80;;;36.30;53.50;;;;;;5058422;28;20436;-71
2023/09/09 12:03:49;;;;;;;11.77;6.83;;;36.20;52.00;;;;;;5061814;28;20853;-71
2023/09/09 12:06:19;;;;;;;15.90;7.10;;;36.00;51.10;;;;;;5056896;28;20467;-71
2023/09/09 12:08:48;;;;;;;11.53;6.03;;;36.40;52.80;;;;;;5060164;28;20550;-71
2023/09/09 12:11:17;;;;;;;13.67;7.00;;;37.00;48.80;;;;;;5059489;28;21149;-71
2023/09/09 12:13:47;;;;;;;11.37;7.63;;;36.70;50.50;;;;;;5061782;28;20490;-71
2023/09/09 12:16:15;;;;;;;14.00;6.93;;;36.00;50.90;;;;;;5070240;28;20443;-71
2023/09/09 12:18:52;;;;;;;13.53;7.33;;;35.90;51.10;;;;;;5058276;28;20469;-71
2023/09/09 12:21:20;;;;;;;13.03;7.67;;;35.80;51.20;;;;;;5050160;28;20448;-72
2023/09/09 12:23:48;;;;;;;12.10;6.80;;;35.50;50.60;;;;;;5050110;28;20949;-72
2023/09/09 12:26:17;;;;;;;12.03;7.30;;;36.00;51.90;;;;;;5055247;28;20505;-71
2023/09/09 12:29:04;;;;;;;12.90;6.40;;;37.10;49.30;;;;;;5060288;28;21034;-71
2023/09/09 12:31:33;;;;;;;15.50;7.77;;;38.30;48.90;;;;;;5061865;28;20462;-68
2023/09/09 12:34:01;;;;;;;11.37;7.03;;;38.70;46.10;;;;;;5057759;28;20444;-70
2023/09/09 12:36:34;;;;;;;13.40;6.90;;;37.50;49.00;;;;;;5061804;28;20447;-72
2023/09/09 12:39:02;;;;;;;11.50;6.87;;;37.00;47.90;;;;;;5060551;28;20467;-71